Time;durP1;ratioP1;P1;durP2;ratioP2;P2;SDS_P1;SDS_P2;PMS_P1;PMS_P2;Temp;Humidity;BMP_temperature;BMP_pressure;BME280_temperature;BME280_humidity;BME280_pressure;Samples;Min_cycle;Max_cycle;Signal;HPM_P1;HPM_P2
2022/11/15 00:00:01;;;;;;;81.73;32.90;;;;;;;5.78;100.00;99229.82;2221724;80;20983;-82
2022/11/15 00:03:01;;;;;;;74.60;30.20;;;;;;;5.80;100.00;99224.28;2221576;78;20964;-82
2022/11/15 00:06:02;;;;;;;90.80;30.73;;;;;;;5.81;100.00;99224.75;2221641;80;20932;-83
2022/11/15 00:09:02;;;;;;;107.60;32.47;;;;;;;5.82;100.00;99221.34;2221849;80;20996;-83
2022/11/15 00:12:03;;;;;;;82.03;31.90;;;;;;;5.85;100.00;99227.52;2221785;80;20960;-83
2022/11/15 00:15:03;;;;;;;84.60;32.90;;;;;;;5.87;100.00;99218.50;2221762;80;20984;-83
2022/11/15 00:18:03;;;;;;;82.67;32.77;;;;;;;5.91;100.00;99218.70;2221805;80;20956;-83
2022/11/15 00:21:04;;;;;;;78.43;32.67;;;;;;;5.95;100.00;99215.39;2221636;80;21312;-83
2022/11/15 00:24:04;;;;;;;71.33;32.33;;;;;;;5.98;100.00;99210.73;2221573;80;21027;-82
2022/11/15 00:27:05;;;;;;;75.83;29.43;;;;;;;5.97;100.00;99207.67;2221572;80;20928;-84
2022/11/15 00:30:05;;;;;;;81.13;29.27;;;;;;;5.94;100.00;99208.45;2221210;80;20992;-83
2022/11/15 00:33:05;;;;;;;85.93;29.83;;;;;;;5.92;100.00;99204.03;2221763;79;21003;-83
2022/11/15 00:36:06;;;;;;;96.30;29.60;;;;;;;5.89;100.00;99203.52;2221173;80;21363;-82
2022/11/15 00:39:06;;;;;;;65.37;30.33;;;;;;;5.87;100.00;99197.36;2221220;80;21011;-83
2022/11/15 00:42:07;;;;;;;71.93;28.27;;;;;;;5.87;100.00;99199.06;2221666;80;20984;-84
2022/11/15 00:45:09;;;;;;;71.23;29.00;;;;;;;5.88;100.00;99196.95;2191255;80;20924;-84
2022/11/15 00:48:09;;;;;;;69.33;28.57;;;;;;;5.87;100.00;99201.25;2221544;80;21664;-83
2022/11/15 00:51:10;;;;;;;61.70;28.93;;;;;;;5.87;100.00;99184.41;2221848;80;20956;-83
2022/11/15 00:54:10;;;;;;;79.10;30.53;;;;;;;5.85;100.00;99178.70;2221307;80;21069;-83
2022/11/15 00:57:11;;;;;;;72.40;29.73;;;;;;;5.83;100.00;99181.66;2221367;80;21363;-83
2022/11/15 01:00:11;;;;;;;72.50;28.10;;;;;;;5.81;100.00;99179.00;2221524;80;20956;-82
2022/11/15 01:03:11;;;;;;;64.13;27.83;;;;;;;5.82;100.00;99177.30;2221621;80;20948;-83
2022/11/15 01:06:12;;;;;;;106.23;30.93;;;;;;;5.79;100.00;99173.30;2221627;80;20956;-83
2022/11/15 01:09:13;;;;;;;93.17;27.60;;;;;;;5.79;100.00;99165.53;2221282;80;21028;-81
2022/11/15 01:12:13;;;;;;;78.33;26.17;;;;;;;5.74;100.00;99166.25;2221586;80;20960;-83
2022/11/15 01:15:13;;;;;;;77.70;26.73;;;;;;;5.73;100.00;99163.19;2221625;80;20956;-83
2022/11/15 01:18:13;;;;;;;75.37;26.83;;;;;;;5.72;100.00;99157.54;2221535;80;21059;-82
2022/11/15 01:21:14;;;;;;;84.63;27.83;;;;;;;5.68;100.00;99158.26;2221714;80;21011;-83
2022/11/15 01:24:14;;;;;;;82.67;32.30;;;;;;;5.67;100.00;99151.31;2221744;80;20988;-84
2022/11/15 01:27:15;;;;;;;96.93;29.67;;;;;;;6.09;100.00;99156.30;2222436;80;20984;-84
2022/11/15 01:30:15;;;;;;;120.67;29.80;;;;;;;9.40;100.00;99142.27;2222142;80;20987;-83
2022/11/15 01:33:15;;;;;;;73.03;24.17;;;;;;;11.73;100.00;99135.38;2222345;80;20912;-83
2022/11/15 01:36:16;;;;;;;71.17;28.53;;;;;;;13.43;100.00;99125.13;2222447;80;20987;-85
2022/11/15 01:39:16;;;;;;;54.47;24.53;;;;;;;14.50;100.00;99121.98;2221587;80;20992;-83
2022/11/15 01:42:17;;;;;;;99.83;27.33;;;;;;;14.64;81.27;99125.92;2222145;80;21344;-82
2022/11/15 01:45:17;;;;;;;74.17;26.00;;;;;;;12.32;76.40;99120.80;2221950;80;20928;-83
2022/11/15 01:48:18;;;;;;;73.97;24.40;;;;;;;10.48;78.12;99128.77;2221596;80;21019;-83
2022/11/15 01:51:18;;;;;;;59.17;25.10;;;;;;;9.32;80.21;99124.28;2222080;80;20952;-83
2022/11/15 01:54:18;;;;;;;56.40;27.50;;;;;;;8.52;82.48;99127.66;2213820;80;21053;-82
2022/11/15 01:57:19;;;;;;;62.80;26.67;;;;;;;7.97;84.48;99120.14;2211597;81;20944;-84
2022/11/15 02:00:19;;;;;;;77.17;26.57;;;;;;;7.54;85.86;99123.25;2211503;81;20968;-83
2022/11/15 02:03:20;;;;;;;69.93;25.97;;;;;;;7.17;87.62;99112.23;2211259;81;20981;-83
2022/11/15 02:06:20;;;;;;;55.63;25.47;;;;;;;6.90;88.95;99105.34;2211559;81;20995;-83
2022/11/15 02:09:20;;;;;;;78.90;25.17;;;;;;;6.71;89.92;99106.91;2211579;81;20941;-82
2022/11/15 02:12:21;;;;;;;68.13;25.10;;;;;;;6.58;91.16;99102.17;2211518;81;20948;-82
2022/11/15 02:15:21;;;;;;;69.93;24.07;;;;;;;6.45;92.41;99093.13;2211715;81;21335;-81
2022/11/15 02:18:22;;;;;;;56.87;25.97;;;;;;;6.33;92.66;99092.73;2211553;81;20980;-81
2022/11/15 02:21:22;;;;;;;53.93;27.13;;;;;;;6.24;93.60;99084.66;2211485;81;20944;-83
2022/11/15 02:24:23;;;;;;;68.60;28.03;;;;;;;6.16;94.18;99083.11;2211764;81;20999;-84
2022/11/15 02:27:23;;;;;;;57.90;27.43;;;;;;;6.10;94.75;99079.02;2211457;81;20980;-83
2022/11/15 02:30:23;;;;;;;50.67;27.23;;;;;;;6.05;95.19;99080.55;2211684;81;20964;-82
2022/11/15 02:33:24;;;;;;;48.27;24.90;;;;;;;6.05;95.46;99075.36;2211456;81;20917;-82
2022/11/15 02:36:24;;;;;;;69.47;27.33;;;;;;;5.99;96.53;99076.04;2211091;81;21027;-82
2022/11/15 02:39:25;;;;;;;81.07;27.90;;;;;;;5.95;96.16;99077.18;2211585;81;20995;-81
2022/11/15 02:45:44;;;;;;;93.70;26.67;;;;;;;5.80;97.27;99055.91;2211415;81;20967;-82
2022/11/15 02:48:44;;;;;;;61.23;27.60;;;;;;;5.80;97.27;99055.91;2211439;81;21016;-83
2022/11/15 02:51:45;;;;;;;77.63;27.10;;;;;;;5.76;97.28;99060.98;2211342;81;20940;-81
2022/11/15 02:54:45;;;;;;;67.17;27.33;;;;;;;5.73;97.58;99056.99;2203916;80;21432;-83
2022/11/15 02:57:48;;;;;;;65.57;26.90;;;;;;;5.68;98.38;99054.66;2202593;81;21008;-82
2022/11/15 03:00:48;;;;;;;83.10;28.37;;;;;;;5.65;98.62;99050.67;2202647;81;20960;-83
2022/11/15 03:03:49;;;;;;;50.30;27.80;;;;;;;5.60;99.04;99048.75;2202068;81;21368;-81
2022/11/15 03:06:49;;;;;;;53.43;26.33;;;;;;;5.56;98.93;99049.06;2202455;81;20983;-82
2022/11/15 03:09:52;;;;;;;82.43;26.60;;;;;;;5.58;99.17;99051.28;2202774;81;20984;-82
2022/11/15 03:12:52;;;;;;;83.07;29.87;;;;;;;5.59;99.57;99050.45;2202774;81;21017;-82
2022/11/15 03:15:53;;;;;;;66.77;27.87;;;;;;;5.55;99.50;99052.48;2202391;81;20972;-82
2022/11/15 03:18:53;;;;;;;73.00;28.27;;;;;;;5.55;99.75;99046.00;2202627;81;21398;-83
2022/11/15 03:21:53;;;;;;;63.63;27.57;;;;;;;5.54;100.00;99039.06;2202566;81;20975;-82
2022/11/15 03:24:54;;;;;;;84.10;27.43;;;;;;;5.52;99.86;99034.66;2202799;81;21333;-83
2022/11/15 03:27:54;;;;;;;53.80;26.37;;;;;;;5.54;100.00;99028.70;2202538;81;21349;-83
2022/11/15 03:30:55;;;;;;;57.30;27.60;;;;;;;5.53;99.95;99030.83;2202343;81;20897;-82
2022/11/15 03:33:55;;;;;;;39.40;26.60;;;;;;;5.55;100.00;99023.11;2202408;79;20996;-83
2022/11/15 03:36:55;;;;;;;49.67;27.77;;;;;;;5.56;100.00;99020.98;2202565;81;21297;-83
2022/11/15 03:39:56;;;;;;;86.53;25.20;;;;;;;5.59;100.00;99013.33;2202776;81;20933;-84
2022/11/15 03:42:56;;;;;;;84.80;24.77;;;;;;;5.55;100.00;99008.88;2202730;81;21540;-83
2022/11/15 03:45:59;;;;;;;74.53;22.93;;;;;;;5.49;100.00;99009.95;2202406;81;20992;-80
2022/11/15 03:48:59;;;;;;;46.07;22.03;;;;;;;5.48;100.00;99003.89;2202573;81;21000;-85
2022/11/15 03:52:00;;;;;;;50.87;22.60;;;;;;;8.77;100.00;98984.70;2202309;81;21308;-85
2022/11/15 03:55:00;;;;;;;102.77;23.50;;;;;;;11.24;100.00;98971.84;2209581;80;21008;-85
2022/11/15 03:58:01;;;;;;;38.53;21.40;;;;;;;13.13;100.00;98963.31;2210727;81;20988;-84
2022/11/15 04:01:01;;;;;;;44.60;21.63;;;;;;;14.50;93.73;98955.20;2210645;81;21312;-84
2022/11/15 04:04:02;;;;;;;49.85;20.80;;;;;;;15.39;89.77;98953.56;2210491;81;20972;-86
2022/11/15 04:07:04;;;;;;;38.60;20.05;;;;;;;16.10;80.03;98946.97;2210761;81;21047;-83
2022/11/15 04:10:05;;;;;;;51.28;20.52;;;;;;;16.56;78.20;98957.97;2211397;81;21394;-83
2022/11/15 04:13:05;;;;;;;52.85;20.92;;;;;;;16.64;71.35;98960.08;2210988;81;21024;-85
2022/11/15 04:16:06;;;;;;;42.17;18.50;;;;;;;16.90;73.26;98960.27;2210980;81;21003;-83
2022/11/15 04:25:44;;;;;;;27.25;17.02;;;;;;;11.32;65.73;98975.88;2211170;81;20980;-83
2022/11/15 04:32:03;;;;;;;42.43;18.37;;;;;;;8.69;72.21;98981.05;2211141;81;20949;-83
2022/11/15 04:35:03;;;;;;;68.27;18.33;;;;;;;8.00;74.94;98975.95;2209912;81;21283;-83
2022/11/15 04:38:04;;;;;;;37.77;18.40;;;;;;;7.47;77.41;98977.17;2210831;81;20969;-84
2022/11/15 04:41:04;;;;;;;51.67;19.67;;;;;;;7.10;79.26;98970.11;2210454;81;20993;-82
2022/11/15 04:44:04;;;;;;;32.97;19.63;;;;;;;6.83;80.62;98971.48;2209984;81;20945;-84
2022/11/15 04:47:05;;;;;;;30.20;19.43;;;;;;;6.59;82.38;98966.05;2210149;81;21000;-84
2022/11/15 04:50:05;;;;;;;33.97;19.57;;;;;;;6.44;83.40;98960.41;2211254;81;21026;-85
2022/11/15 04:53:06;;;;;;;31.70;18.67;;;;;;;6.29;84.86;98956.95;2210253;80;20933;-84
2022/11/15 04:56:06;;;;;;;35.93;19.03;;;;;;;6.15;85.51;98963.42;2210274;81;20929;-84
2022/11/15 04:59:06;;;;;;;42.60;17.97;;;;;;;6.04;86.17;98965.64;2210230;81;21017;-83
2022/11/15 05:02:07;;;;;;;29.67;17.63;;;;;;;5.94;87.20;98957.53;2210196;81;20929;-84
2022/11/15 05:05:07;;;;;;;37.37;19.53;;;;;;;5.86;87.69;98954.66;2209765;81;21008;-84
2022/11/15 05:08:08;;;;;;;32.57;16.33;;;;;;;5.80;88.18;98962.23;2210021;81;21003;-82
2022/11/15 05:11:08;;;;;;;27.50;17.60;;;;;;;5.69;89.77;98960.59;2209484;81;20953;-84
2022/11/15 05:14:08;;;;;;;35.40;17.77;;;;;;;5.57;89.74;98960.61;2209262;81;21011;-84
2022/11/15 05:17:09;;;;;;;31.30;18.23;;;;;;;5.52;90.49;98958.28;2208219;81;20940;-83
2022/11/15 05:20:09;;;;;;;33.00;17.93;;;;;;;5.47;90.74;98954.23;2209309;81;20996;-83
2022/11/15 05:23:10;;;;;;;31.50;17.40;;;;;;;5.46;91.22;98951.19;2208590;81;21344;-83
2022/11/15 05:26:10;;;;;;;47.10;17.83;;;;;;;5.39;91.38;98951.81;2209082;81;21024;-84
2022/11/15 05:29:11;;;;;;;36.73;17.80;;;;;;;5.32;91.54;98944.25;2208853;81;20905;-82
2022/11/15 05:32:11;;;;;;;63.10;19.77;;;;;;;5.28;92.26;98940.20;2207962;81;21423;-81
2022/11/15 05:35:11;;;;;;;74.87;18.27;;;;;;;5.25;92.90;98936.22;2208713;81;20972;-83
2022/11/15 05:38:12;;;;;;;52.27;18.40;;;;;;;5.23;93.59;98927.53;2208702;81;20932;-84
2022/11/15 05:41:12;;;;;;;39.13;18.87;;;;;;;5.15;93.78;98932.82;2208205;81;21380;-82
2022/11/15 05:44:12;;;;;;;35.27;17.87;;;;;;;5.33;94.47;98923.12;2208584;81;21007;-83
2022/11/15 05:47:13;;;;;;;46.33;17.77;;;;;;;5.30;93.77;98930.38;2208032;81;20924;-83
2022/11/15 05:50:13;;;;;;;61.77;18.97;;;;;;;5.20;93.68;98928.30;2208198;81;21015;-84
2022/11/15 05:53:14;;;;;;;47.10;19.47;;;;;;;5.16;94.48;98928.11;2208717;80;20944;-85
2022/11/15 05:56:14;;;;;;;67.30;19.03;;;;;;;5.12;94.12;98931.89;2207765;81;20992;-83
2022/11/15 05:59:15;;;;;;;34.27;22.30;;;;;;;5.08;94.54;98932.61;2208439;81;20921;-84
2022/11/15 06:02:15;;;;;;;44.50;23.20;;;;;;;5.10;95.15;98925.78;2208507;81;20945;-84
2022/11/15 06:05:16;;;;;;;52.20;18.73;;;;;;;5.18;95.17;98927.75;2208319;81;20985;-84
2022/11/15 06:08:16;;;;;;;42.13;18.50;;;;;;;5.22;95.10;98932.23;2208228;81;21471;-84
2022/11/15 06:11:16;;;;;;;42.23;18.10;;;;;;;5.28;95.13;98931.15;2208536;81;20974;-84
2022/11/15 06:14:17;;;;;;;53.93;20.17;;;;;;;5.30;95.07;98930.79;2209189;81;20988;-83
2022/11/15 06:17:17;;;;;;;49.67;20.00;;;;;;;5.31;95.49;98933.42;2209852;81;21314;-84
2022/11/15 06:20:18;;;;;;;42.00;19.70;;;;;;;5.35;95.08;98927.94;2209148;81;21027;-80
2022/11/15 06:23:18;;;;;;;74.60;20.20;;;;;;;5.37;95.05;98932.75;2208573;81;20971;-84
2022/11/15 06:26:18;;;;;;;38.97;16.10;;;;;;;5.38;95.14;98935.39;2207924;81;20987;-84
2022/11/15 06:29:19;;;;;;;37.20;17.70;;;;;;;5.35;94.74;98934.41;2208990;81;20964;-83
2022/11/15 06:32:19;;;;;;;46.73;18.07;;;;;;;5.30;94.65;98938.55;2208128;81;20928;-83
2022/11/15 06:35:20;;;;;;;48.37;17.70;;;;;;;5.30;95.13;98937.26;2208838;81;20988;-83
2022/11/15 06:38:20;;;;;;;43.87;17.83;;;;;;;5.32;94.84;98940.78;2209272;81;20952;-83
2022/11/15 06:41:21;;;;;;;38.97;17.83;;;;;;;5.30;94.65;98936.84;2208553;81;20937;-83
2022/11/15 06:44:21;;;;;;;45.80;17.70;;;;;;;5.32;95.10;98933.02;2207849;81;21604;-84
2022/11/15 06:47:21;;;;;;;57.63;17.23;;;;;;;5.38;95.01;98937.11;2208946;81;20988;-84
2022/11/15 06:50:22;;;;;;;39.20;18.10;;;;;;;5.39;94.79;98937.56;2209247;81;21016;-83
2022/11/15 06:53:22;;;;;;;76.20;20.20;;;;;;;5.42;95.14;98935.09;2209365;81;20932;-84
2022/11/15 06:56:22;;;;;;;35.27;17.60;;;;;;;5.67;96.18;98929.00;2209007;81;20940;-84
2022/11/15 06:59:23;;;;;;;25.73;16.50;;;;;;;5.74;94.93;98925.36;2209461;81;21431;-79
2022/11/15 07:02:23;;;;;;;29.83;17.37;;;;;;;5.75;94.35;98924.95;2209393;81;20897;-81
2022/11/15 07:05:24;;;;;;;37.43;16.43;;;;;;;5.78;94.37;98926.75;2208805;81;21000;-82
2022/11/15 07:08:24;;;;;;;28.50;14.30;;;;;;;5.80;93.78;98918.20;2208689;81;21634;-83
2022/11/15 07:11:25;;;;;;;33.73;15.30;;;;;;;5.71;93.31;98916.20;2208177;81;21003;-84
2022/11/15 07:14:25;;;;;;;56.43;16.47;;;;;;;5.69;93.67;98918.28;2207956;81;20956;-85
2022/11/15 07:17:25;;;;;;;121.77;57.47;;;;;;;5.71;93.72;98924.38;2208362;81;21340;-83
2022/11/15 07:20:26;;;;;;;37.13;21.50;;;;;;;5.79;94.93;98919.45;2208497;81;20932;-84
2022/11/15 07:23:26;;;;;;;57.73;17.17;;;;;;;5.99;94.01;98928.76;2208322;81;20932;-84
2022/11/15 07:26:27;;;;;;;67.63;17.30;;;;;;;5.98;92.97;98923.99;2208549;81;21695;-85
2022/11/15 07:29:27;;;;;;;49.43;16.93;;;;;;;5.91;92.72;98923.34;2208398;81;21324;-83
2022/11/15 07:32:28;;;;;;;56.13;16.77;;;;;;;5.89;92.92;98925.38;2208036;81;20937;-84
2022/11/15 07:35:28;;;;;;;76.37;18.17;;;;;;;5.86;93.06;98920.11;2208859;81;21015;-82
2022/11/15 07:38:28;;;;;;;28.47;15.90;;;;;;;5.90;93.64;98912.92;2209864;81;21308;-83
2022/11/15 07:41:29;;;;;;;35.97;17.80;;;;;;;5.99;93.76;98914.09;2208661;81;20972;-84
2022/11/15 07:44:29;;;;;;;47.17;17.00;;;;;;;6.00;93.67;98918.44;2208723;81;20972;-84
2022/11/15 07:47:30;;;;;;;28.23;16.77;;;;;;;6.09;93.85;98914.41;2172001;79;21485;-83
2022/11/15 07:50:32;;;;;;;37.33;15.83;;;;;;;6.30;93.68;98914.63;2132836;83;20889;-83
2022/11/15 07:53:32;;;;;;;41.13;15.00;;;;;;;6.30;93.68;98914.63;2152143;83;20920;-83
2022/11/15 07:56:33;;;;;;;44.37;14.77;;;;;;;6.29;92.57;98910.28;2152238;83;21379;-82
2022/11/15 07:59:34;;;;;;;146.10;19.43;;;;;;;6.26;92.44;98916.67;2152291;83;20980;-84
2022/11/15 08:02:38;;;;;;;36.07;15.03;;;;;;;6.24;93.01;98922.23;2151896;83;20956;-83
2022/11/15 08:05:36;;;;;;;52.97;15.70;;;;;;;6.26;92.51;98914.08;2135339;83;20964;-85
2022/11/15 08:08:38;;;;;;;25.83;14.33;;;;;;;6.34;92.45;98918.20;2134873;83;20897;-85
2022/11/15 08:11:38;;;;;;;27.47;15.40;;;;;;;6.39;92.48;98916.20;2153328;83;21371;-85
2022/11/15 08:14:39;;;;;;;27.93;13.70;;;;;;;6.42;92.16;98911.94;2154354;83;20973;-85
2022/11/15 08:17:39;;;;;;;39.13;15.40;;;;;;;6.50;91.82;98906.55;2154639;83;21008;-84
2022/11/15 08:20:40;;;;;;;25.30;14.97;;;;;;;6.54;91.78;98901.92;2154793;82;20996;-84
2022/11/15 08:23:40;;;;;;;17.43;14.87;;;;;;;6.62;91.19;98898.70;2153987;83;21021;-81
2022/11/15 08:26:41;;;;;;;17.50;14.60;;;;;;;6.63;91.05;98895.28;2152291;83;20972;-83
2022/11/15 08:29:41;;;;;;;26.37;15.27;;;;;;;6.76;91.52;98899.09;2153582;83;20972;-84
2022/11/15 08:32:41;;;;;;;21.07;15.90;;;;;;;6.87;91.16;98891.18;2154008;83;20948;-84
2022/11/15 08:35:42;;;;;;;35.53;16.57;;;;;;;6.94;91.11;98882.76;2152988;83;21427;-84
2022/11/15 08:38:42;;;;;;;64.10;36.10;;;;;;;7.03;90.86;98888.61;2153287;83;20964;-84
2022/11/15 08:41:44;;;;;;;61.80;21.00;;;;;;;7.09;90.67;98890.06;2153379;83;20944;-84
2022/11/15 08:44:43;;;;;;;57.10;19.10;;;;;;;7.15;90.53;98882.86;2154330;83;20948;-81
2022/11/15 08:47:43;;;;;;;158.63;24.63;;;;;;;7.24;90.42;98886.57;2149936;82;21020;-83
2022/11/15 08:50:44;;;;;;;30.40;17.63;;;;;;;7.35;89.92;98878.63;2154359;83;21016;-84
2022/11/15 08:53:44;;;;;;;25.43;17.20;;;;;;;7.47;89.48;98879.36;2154814;83;21008;-83
2022/11/15 08:56:45;;;;;;;21.83;17.07;;;;;;;7.58;89.26;98884.81;2154454;83;21245;-83
2022/11/15 08:59:45;;;;;;;28.17;18.80;;;;;;;7.65;88.47;98882.39;2153853;83;21008;-83
2022/11/15 09:02:46;;;;;;;25.47;18.30;;;;;;;7.66;88.58;98882.85;2154748;83;21345;-83
2022/11/15 09:05:46;;;;;;;21.63;17.80;;;;;;;7.75;88.25;98880.89;2153937;83;20965;-85
2022/11/15 09:08:46;;;;;;;37.10;21.03;;;;;;;7.83;87.73;98883.70;2152904;83;20992;-81
2022/11/15 09:11:47;;;;;;;25.00;17.87;;;;;;;7.75;87.16;98877.42;2152808;83;21411;-84
2022/11/15 09:14:50;;;;;;;35.50;20.97;;;;;;;7.75;88.10;98880.02;2152824;83;20924;-84
2022/11/15 09:17:50;;;;;;;27.00;18.20;;;;;;;7.88;88.08;98869.97;2152443;83;20920;-85
2022/11/15 09:20:51;;;;;;;22.70;17.57;;;;;;;7.98;87.29;98865.86;2152772;83;21312;-85
2022/11/15 09:23:52;;;;;;;30.57;19.77;;;;;;;8.03;87.38;98858.16;2152568;82;20932;-84
2022/11/15 09:26:52;;;;;;;95.67;20.80;;;;;;;8.13;87.05;98857.09;2151688;83;21636;-83
2022/11/15 09:29:52;;;;;;;22.10;18.43;;;;;;;8.19;86.71;98856.34;2152324;83;20917;-85
2022/11/15 09:32:53;;;;;;;67.00;20.10;;;;;;;8.20;86.85;98846.41;2152974;83;20929;-84
2022/11/15 09:35:53;;;;;;;27.33;17.90;;;;;;;8.38;86.71;98848.55;2155844;79;22387;-83
2022/11/15 09:38:53;;;;;;;52.07;20.83;;;;;;;8.60;85.90;98845.52;2224189;80;20923;-82
2022/11/15 09:41:54;;;;;;;46.10;20.73;;;;;;;8.71;85.52;98849.23;2224859;80;21038;-83
2022/11/15 09:44:54;;;;;;;48.10;21.50;;;;;;;8.79;85.01;98842.45;2226358;80;20947;-83
2022/11/15 09:47:55;;;;;;;25.73;19.67;;;;;;;8.79;84.80;98839.86;2224302;80;20947;-84
2022/11/15 09:50:58;;;;;;;24.10;19.33;;;;;;;8.84;84.62;98844.72;2223971;80;21536;-84
2022/11/15 09:53:59;;;;;;;31.47;19.43;;;;;;;8.83;84.46;98840.36;2224156;80;20906;-83
2022/11/15 09:56:59;;;;;;;26.93;20.53;;;;;;;8.84;84.51;98831.70;2224903;80;21543;-82
2022/11/15 10:00:00;;;;;;;23.97;19.47;;;;;;;8.79;83.99;98826.84;2225758;80;20916;-83
2022/11/15 10:03:00;;;;;;;21.70;18.57;;;;;;;8.70;84.00;98812.36;2224859;80;20872;-82
2022/11/15 10:06:01;;;;;;;24.83;18.10;;;;;;;8.62;83.84;98813.48;2224701;80;21730;-82
2022/11/15 10:09:01;;;;;;;24.43;19.30;;;;;;;8.62;84.66;98809.58;2225010;80;20923;-84
2022/11/15 10:12:02;;;;;;;117.57;26.43;;;;;;;8.71;84.52;98805.00;2224672;80;20900;-82
2022/11/15 10:15:02;;;;;;;54.83;35.63;;;;;;;8.82;84.83;98807.38;2224855;80;21318;-84
2022/11/15 10:18:02;;;;;;;34.53;22.13;;;;;;;9.02;84.73;98791.23;2225101;80;20926;-83
2022/11/15 10:21:03;;;;;;;39.27;23.10;;;;;;;9.25;84.33;98792.06;2225501;80;20896;-84
2022/11/15 10:24:03;;;;;;;32.57;20.73;;;;;;;9.37;83.76;98788.77;2225812;80;21350;-83
2022/11/15 10:27:03;;;;;;;26.30;20.50;;;;;;;9.37;83.28;98784.86;2224998;80;20915;-84
2022/11/15 10:30:04;;;;;;;25.40;21.00;;;;;;;9.20;82.81;98779.81;2225343;80;20979;-84
2022/11/15 10:33:04;;;;;;;27.10;21.80;;;;;;;9.12;83.11;98784.90;2225393;80;20908;-84
2022/11/15 10:36:05;;;;;;;25.17;21.20;;;;;;;9.14;83.65;98775.81;2224899;80;20951;-84
2022/11/15 10:39:05;;;;;;;483.80;45.30;;;;;;;9.12;83.61;98778.81;2217723;80;20955;-83
2022/11/15 10:42:05;;;;;;;37.33;24.37;;;;;;;9.12;83.92;98774.48;2217652;80;20888;-80
2022/11/15 10:45:06;;;;;;;28.90;22.33;;;;;;;10.96;97.79;98762.12;2217401;80;20880;-83
2022/11/15 10:48:06;;;;;;;48.83;25.43;;;;;;;11.33;82.21;98753.76;2217489;80;21314;-82
2022/11/15 10:51:07;;;;;;;30.35;23.95;;;;;;;11.03;80.91;98751.75;2217836;80;20915;-85
2022/11/15 10:54:07;;;;;;;33.33;23.33;;;;;;;10.88;79.77;98753.35;2218849;80;21360;-82
2022/11/15 10:57:07;;;;;;;72.37;27.48;;;;;;;10.73;79.74;98747.12;2218633;80;21350;-84
2022/11/15 11:00:08;;;;;;;33.23;25.23;;;;;;;10.68;79.80;98747.94;2217608;80;20955;-83
2022/11/15 11:03:08;;;;;;;31.48;24.40;;;;;;;10.43;79.53;98738.55;2219641;80;20916;-83
2022/11/15 11:06:09;;;;;;;59.20;27.20;;;;;;;10.24;79.74;98739.61;2218473;80;20896;-83
2022/11/15 11:09:09;;;;;;;79.33;28.90;;;;;;;10.08;80.27;98735.48;2217951;80;20971;-80
2022/11/15 11:12:09;;;;;;;61.20;43.17;;;;;;;9.94;80.73;98728.35;2219629;80;20880;-85
2022/11/15 11:15:10;;;;;;;54.30;41.35;;;;;;;9.85;81.23;98716.95;2218294;80;20915;-84
2022/11/15 11:18:11;;;;;;;34.50;27.93;;;;;;;9.85;81.46;98710.44;2217517;80;21338;-85
2022/11/15 11:21:14;;;;;;;35.98;27.82;;;;;;;9.76;80.95;98709.44;2217566;80;20958;-84
2022/11/15 11:24:11;;;;;;;56.43;30.57;;;;;;;9.69;82.00;98705.00;2217553;80;20963;-84
2022/11/15 11:27:11;;;;;;;46.60;30.57;;;;;;;9.58;81.80;98700.95;2217178;80;20927;-83
2022/11/15 11:30:12;;;;;;;39.17;27.03;;;;;;;9.54;82.62;98699.16;2215719;80;20967;-81
2022/11/15 11:33:12;;;;;;;39.67;29.73;;;;;;;9.53;82.45;98695.65;2216526;80;20884;-82
2022/11/15 11:36:13;;;;;;;38.93;28.50;;;;;;;9.45;82.90;98688.59;2216470;80;21307;-80
2022/11/15 11:39:13;;;;;;;34.40;28.03;;;;;;;9.37;83.55;98685.88;2204795;81;20943;-81
2022/11/15 11:42:13;;;;;;;35.10;28.30;;;;;;;9.37;83.38;98680.66;2205450;81;20987;-82
2022/11/15 11:45:14;;;;;;;51.63;30.43;;;;;;;9.36;83.77;98680.64;2206197;81;20912;-82
2022/11/15 11:48:15;;;;;;;42.37;31.23;;;;;;;9.37;83.66;98674.58;2205912;80;20912;-81
2022/11/15 11:51:15;;;;;;;40.33;31.30;;;;;;;9.41;83.95;98673.77;2205968;81;20948;-83
2022/11/15 11:54:16;;;;;;;44.63;30.90;;;;;;;9.42;83.89;98673.78;2206112;81;20943;-83
2022/11/15 11:57:16;;;;;;;38.60;29.03;;;;;;;9.38;83.92;98663.30;2206802;81;20912;-82
2022/11/15 12:00:17;;;;;;;37.87;29.70;;;;;;;9.36;84.41;98664.59;2206112;81;20899;-82
2022/11/15 12:03:17;;;;;;;37.17;29.57;;;;;;;9.42;84.58;98664.66;2207053;81;21357;-81
2022/11/15 12:06:18;;;;;;;35.43;28.87;;;;;;;9.48;84.62;98662.14;2205614;81;21637;-81
2022/11/15 12:09:18;;;;;;;242.53;39.23;;;;;;;9.51;84.56;98654.36;2205570;81;20908;-80
2022/11/15 12:12:18;;;;;;;36.47;28.27;;;;;;;9.55;84.74;98652.28;2205396;81;20912;-83
2022/11/15 12:15:19;;;;;;;39.50;28.20;;;;;;;9.59;84.62;98646.68;2206118;81;20952;-83
2022/11/15 12:18:19;;;;;;;37.50;28.53;;;;;;;9.61;84.79;98642.79;2205716;81;20904;-83
2022/11/15 12:21:22;;;;;;;34.93;28.80;;;;;;;9.69;84.73;98637.24;2176890;81;20940;-82
2022/11/15 12:24:22;;;;;;;43.83;29.07;;;;;;;9.70;84.90;98633.35;2204693;81;20928;-83
2022/11/15 12:27:24;;;;;;;36.47;27.47;;;;;;;9.78;84.90;98632.14;2205120;81;20963;-82
2022/11/15 12:30:23;;;;;;;1348.23;119.33;;;;;;;9.83;85.23;98634.37;2204710;81;20904;-80
2022/11/15 12:33:23;;;;;;;134.17;39.13;;;;;;;9.85;84.75;98628.31;2205046;81;20951;-83
2022/11/15 12:36:24;;;;;;;44.87;30.13;;;;;;;9.83;84.84;98616.99;2206018;81;20959;-81
2022/11/15 12:39:24;;;;;;;38.77;29.23;;;;;;;9.86;85.03;98621.37;2205161;81;21000;-83
2022/11/15 12:42:24;;;;;;;216.63;55.13;;;;;;;9.87;85.15;98617.91;2205635;81;20964;-80
2022/11/15 12:45:25;;;;;;;36.90;28.77;;;;;;;9.87;85.17;98614.87;2204837;81;21007;-81
2022/11/15 12:48:25;;;;;;;38.53;27.93;;;;;;;9.88;85.38;98613.13;2205007;81;20932;-82
2022/11/15 12:51:26;;;;;;;36.00;28.27;;;;;;;9.93;85.42;98606.23;2204072;81;20936;-82
2022/11/15 12:54:29;;;;;;;127.17;33.73;;;;;;;9.94;85.47;98604.50;2204522;81;20905;-83
2022/11/15 12:57:27;;;;;;;41.10;29.87;;;;;;;9.98;85.40;98603.67;2204897;81;20909;-82
2022/11/15 13:00:27;;;;;;;45.27;31.10;;;;;;;9.99;85.36;98606.30;2204137;81;20943;-81
2022/11/15 13:03:27;;;;;;;45.67;33.17;;;;;;;9.96;85.29;98597.57;2204115;81;20912;-78
2022/11/15 13:06:28;;;;;;;49.43;32.87;;;;;;;10.00;85.39;98594.14;2203278;81;20928;-81
2022/11/15 13:09:32;;;;;;;55.90;34.03;;;;;;;10.01;85.39;98587.63;2203553;81;20915;-81
2022/11/15 13:12:34;;;;;;;45.33;32.53;;;;;;;10.09;85.58;98582.06;2204346;81;20892;-82
2022/11/15 13:15:32;;;;;;;49.57;33.83;;;;;;;10.18;85.47;98580.84;2205174;81;21383;-82
2022/11/15 13:18:33;;;;;;;187.00;39.03;;;;;;;10.19;85.58;98572.16;2204108;81;20947;-80
2022/11/15 13:24:52;;;;;;;179.37;38.33;;;;;;;10.17;85.48;98583.00;2204273;81;20904;-79
2022/11/15 13:27:54;;;;;;;61.03;34.80;;;;;;;10.12;85.51;98574.27;2204931;81;21342;-81
2022/11/15 13:30:53;;;;;;;53.40;33.13;;;;;;;10.16;85.53;98574.73;2204777;81;20948;-82
2022/11/15 13:33:53;;;;;;;48.50;33.37;;;;;;;10.18;85.58;98574.32;2205029;81;20916;-82
2022/11/15 13:36:54;;;;;;;48.10;32.97;;;;;;;10.21;85.72;98571.77;2204932;81;20948;-81
2022/11/15 13:39:54;;;;;;;52.23;30.93;;;;;;;10.23;85.79;98560.05;2204926;81;21585;-81
2022/11/15 13:42:55;;;;;;;42.63;30.43;;;;;;;10.29;85.84;98563.14;2206049;81;20971;-83
2022/11/15 13:45:55;;;;;;;44.40;29.60;;;;;;;10.36;85.74;98564.51;2205340;81;20920;-82
2022/11/15 13:48:55;;;;;;;123.97;35.33;;;;;;;10.39;85.83;98563.66;2205484;81;20924;-82
2022/11/15 13:51:57;;;;;;;48.03;31.43;;;;;;;10.44;85.98;98563.30;2205437;81;21283;-82
2022/11/15 13:54:56;;;;;;;51.23;33.13;;;;;;;10.47;86.00;98558.97;2204425;81;20935;-81
2022/11/15 13:57:57;;;;;;;52.97;32.70;;;;;;;10.49;85.87;98558.55;2204824;81;20916;-80
2022/11/15 14:00:57;;;;;;;45.30;30.63;;;;;;;10.43;85.87;98553.29;2204483;81;21295;-81
2022/11/15 14:03:57;;;;;;;90.80;32.17;;;;;;;10.39;86.18;98557.13;2204336;81;21678;-80
2022/11/15 14:06:58;;;;;;;77.50;36.53;;;;;;;10.37;86.48;98546.69;2204027;81;21402;-82
2022/11/15 14:09:58;;;;;;;46.57;30.37;;;;;;;10.39;86.63;98537.56;2204221;81;20932;-80